createdAt,value
2024-02-08T00:01:11.658Z,5.30
2024-02-08T00:03:40.716Z,8.77
2024-02-08T00:06:08.983Z,5.68
2024-02-08T00:08:38.329Z,5.68
2024-02-08T00:11:08.112Z,6.07
2024-02-08T00:13:38.454Z,5.10
2024-02-08T00:16:12.813Z,9.05
2024-02-08T00:18:41.572Z,6.50
2024-02-08T00:21:10.862Z,5.07
2024-02-08T00:23:39.430Z,5.45
2024-02-08T00:26:07.572Z,6.25
2024-02-08T00:28:35.757Z,3.97
2024-02-08T00:31:07.712Z,5.68
2024-02-08T00:33:39.994Z,5.25
2024-02-08T00:36:12.865Z,6.28
2024-02-08T00:38:41.352Z,5.72
2024-02-08T00:41:10.605Z,4.03
2024-02-08T00:43:40.345Z,4.07
2024-02-08T00:46:08.529Z,3.75
2024-02-08T00:48:38.035Z,5.95
2024-02-08T00:51:08.361Z,6.57
2024-02-08T00:53:36.520Z,3.97
2024-02-08T00:56:04.950Z,5.85
2024-02-08T00:58:34.493Z,5.85
2024-02-08T01:01:05.316Z,4.88
2024-02-08T01:03:34.726Z,6.65
2024-02-08T01:06:06.175Z,7.07
2024-02-08T01:08:34.972Z,5.40
2024-02-08T01:11:03.198Z,6.18
2024-02-08T01:13:33.117Z,6.05
2024-02-08T01:16:01.490Z,5.82
2024-02-08T01:18:29.986Z,5.80
2024-02-08T01:20:58.098Z,4.38
2024-02-08T01:23:29.407Z,4.47
2024-02-08T01:25:57.626Z,7.82
2024-02-08T01:28:26.677Z,6.30
2024-02-08T01:30:54.914Z,5.25
2024-02-08T01:33:22.946Z,5.80
2024-02-08T01:35:53.565Z,5.70
2024-02-08T01:38:22.752Z,6.57
2024-02-08T01:40:52.293Z,4.93
2024-02-08T01:43:20.549Z,4.18
2024-02-08T01:45:50.829Z,6.72
2024-02-08T01:48:19.697Z,5.97
2024-02-08T01:50:52.397Z,5.32
2024-02-08T01:53:29.385Z,5.97
2024-02-08T01:56:02.441Z,4.88
2024-02-08T01:58:33.344Z,5.78
2024-02-08T02:01:14.887Z,7.28
2024-02-08T02:03:43.207Z,5.22
2024-02-08T02:06:15.813Z,4.10
2024-02-08T02:08:54.755Z,3.53
2024-02-08T02:11:31.698Z,5.40
2024-02-08T02:14:00.803Z,5.05
2024-02-08T02:16:29.534Z,6.88
2024-02-08T02:18:58.459Z,8.23
2024-02-08T02:21:28.536Z,4.88
2024-02-08T02:23:58.575Z,5.95
2024-02-08T02:26:27.789Z,6.57
2024-02-08T02:28:57.070Z,4.05
2024-02-08T02:31:28.519Z,5.22
2024-02-08T02:33:58.727Z,5.30
2024-02-08T02:36:28.599Z,4.88
2024-02-08T02:38:57.880Z,4.53
2024-02-08T02:41:29.216Z,6.28
2024-02-08T02:43:57.501Z,7.43
2024-02-08T02:46:25.768Z,5.32
2024-02-08T02:48:54.021Z,4.80
2024-02-08T02:51:28.279Z,7.40
2024-02-08T02:54:00.157Z,8.77
2024-02-08T02:56:33.235Z,4.97
2024-02-08T02:59:05.030Z,7.97
2024-02-08T03:01:40.264Z,7.32
2024-02-08T03:04:12.242Z,4.68
2024-02-08T03:06:44.428Z,5.18
2024-02-08T03:09:17.478Z,6.53
2024-02-08T03:11:46.323Z,8.00
2024-02-08T03:14:16.672Z,7.28
2024-02-08T03:16:47.166Z,8.23
2024-02-08T03:19:17.749Z,7.00
2024-02-08T03:21:47.006Z,6.47
2024-02-08T03:24:16.563Z,5.50
2024-02-08T03:26:48.744Z,4.85
2024-02-08T03:29:18.816Z,5.10
2024-02-08T03:31:49.302Z,8.30
2024-02-08T03:34:21.463Z,4.05
2024-02-08T03:36:52.458Z,6.55
2024-02-08T03:39:27.629Z,5.60
2024-02-08T03:42:01.098Z,5.82
2024-02-08T03:44:32.556Z,7.38
2024-02-08T03:47:06.389Z,6.60
2024-02-08T03:49:35.218Z,4.68
2024-02-08T03:52:03.428Z,8.90
2024-02-08T03:54:34.369Z,7.53
2024-02-08T03:57:07.205Z,9.38
2024-02-08T03:59:36.071Z,9.60
2024-02-08T04:02:06.724Z,6.47
2024-02-08T04:04:51.139Z,5.78
2024-02-08T04:07:23.618Z,3.50
2024-02-08T04:09:57.974Z,6.72
2024-02-08T04:12:44.542Z,5.28
2024-02-08T04:15:33.872Z,5.43
2024-02-08T04:18:20.300Z,5.35
2024-02-08T04:21:06.004Z,5.32
2024-02-08T04:23:52.246Z,5.70
2024-02-08T04:26:39.000Z,5.07
2024-02-08T04:29:25.447Z,6.72
2024-02-08T04:32:11.300Z,6.55
2024-02-08T04:34:58.822Z,6.40
2024-02-08T04:37:44.588Z,5.53
2024-02-08T04:40:36.307Z,7.63
2024-02-08T04:43:23.925Z,6.45
2024-02-08T04:46:09.478Z,6.65
2024-02-08T04:48:56.826Z,6.55
2024-02-08T04:51:44.263Z,7.05
2024-02-08T04:54:12.493Z,5.18
2024-02-08T04:56:40.789Z,7.68
2024-02-08T04:59:21.619Z,5.53
2024-02-08T05:01:54.536Z,7.10
2024-02-08T05:04:23.361Z,6.88
2024-02-08T05:06:52.409Z,6.32
2024-02-08T05:09:21.607Z,5.95
2024-02-08T05:11:51.275Z,8.68
2024-02-08T05:14:24.108Z,5.13
2024-02-08T05:16:56.134Z,6.03
2024-02-08T05:19:27.370Z,9.40
2024-02-08T05:22:01.006Z,6.68
2024-02-08T05:24:32.402Z,4.90
2024-02-08T05:27:01.361Z,6.40
2024-02-08T05:29:33.340Z,3.83
2024-02-08T05:32:02.716Z,4.97
2024-02-08T05:34:31.343Z,7.82
2024-02-08T05:37:03.156Z,5.95
2024-02-08T05:39:32.791Z,7.20
2024-02-08T05:42:02.003Z,5.45
2024-02-08T05:44:56.673Z,8.35
2024-02-08T05:47:27.640Z,9.40
2024-02-08T05:49:57.418Z,8.30
2024-02-08T05:52:33.767Z,7.97
2024-02-08T05:55:12.413Z,5.63
2024-02-08T05:58:00.284Z,9.13
2024-02-08T06:00:37.523Z,5.25
2024-02-08T06:03:07.183Z,4.63
2024-02-08T06:05:37.463Z,5.15
2024-02-08T06:08:26.393Z,6.38
2024-02-08T06:10:54.832Z,8.82
2024-02-08T06:13:27.635Z,5.22
2024-02-08T06:16:09.592Z,6.28
2024-02-08T06:18:39.334Z,6.65
2024-02-08T06:21:15.050Z,8.75
2024-02-08T06:23:46.599Z,11.02
2024-02-08T06:26:29.391Z,6.93
2024-02-08T06:29:06.831Z,5.65
2024-02-08T06:31:42.603Z,7.90
2024-02-08T06:34:29.367Z,7.00
2024-02-08T06:37:17.751Z,7.13
2024-02-08T06:39:57.472Z,6.55
2024-02-08T06:42:48.576Z,7.05
2024-02-08T06:45:46.236Z,11.85
2024-02-08T06:48:43.656Z,7.80
2024-02-08T06:51:29.331Z,5.63
2024-02-08T06:54:14.799Z,7.82
2024-02-08T06:57:00.279Z,6.45
2024-02-08T06:59:48.469Z,8.18
2024-02-08T07:02:34.308Z,8.38
2024-02-08T07:05:21.434Z,9.35
2024-02-08T07:08:13.210Z,8.82
2024-02-08T07:10:59.097Z,6.72
2024-02-08T07:13:44.664Z,4.30
2024-02-08T07:16:31.268Z,12.25
2024-02-08T07:19:17.243Z,6.38
2024-02-08T07:22:04.684Z,6.43
2024-02-08T07:24:50.157Z,8.25
2024-02-08T07:27:35.616Z,10.75
2024-02-08T07:30:20.878Z,12.93
2024-02-08T07:33:06.624Z,8.68
2024-02-08T07:35:53.260Z,12.00
2024-02-08T07:38:43.781Z,16.88
2024-02-08T07:41:13.648Z,17.35
2024-02-08T07:43:45.248Z,14.40
2024-02-08T07:46:18.057Z,10.80
2024-02-08T07:48:46.772Z,10.35
2024-02-08T07:51:17.510Z,13.23
2024-02-08T07:53:53.275Z,15.38
2024-02-08T07:56:38.741Z,11.02
2024-02-08T07:59:17.131Z,13.60
2024-02-08T08:01:51.487Z,9.30
2024-02-08T08:04:34.684Z,8.85
2024-02-08T08:07:03.298Z,8.50
2024-02-08T08:09:37.718Z,11.35
2024-02-08T08:12:07.729Z,12.27
2024-02-08T08:14:57.996Z,9.30
2024-02-08T08:17:42.107Z,18.63
2024-02-08T08:20:38.529Z,12.02
2024-02-08T08:23:26.883Z,11.35
2024-02-08T08:26:23.747Z,10.52
2024-02-08T08:28:54.111Z,10.60
2024-02-08T08:31:37.427Z,9.40
2024-02-08T08:34:24.000Z,9.60
2024-02-08T08:37:00.015Z,12.82
2024-02-08T08:39:46.368Z,9.30
2024-02-08T08:42:19.176Z,9.80
2024-02-08T08:44:52.989Z,10.68
2024-02-08T08:47:25.906Z,11.20
2024-02-08T08:49:54.756Z,9.65
2024-02-08T08:52:25.948Z,7.88
2024-02-08T08:55:12.736Z,7.40
2024-02-08T08:57:42.428Z,11.07
2024-02-08T09:00:12.784Z,8.30
2024-02-08T09:02:43.713Z,6.85
2024-02-08T09:05:19.192Z,8.23
2024-02-08T09:07:48.726Z,10.27
2024-02-08T09:10:19.021Z,11.00
2024-02-08T09:12:59.856Z,10.73
2024-02-08T09:15:42.381Z,11.57
2024-02-08T09:18:11.354Z,7.88
2024-02-08T09:20:39.824Z,9.80
2024-02-08T09:23:15.509Z,12.18
2024-02-08T09:25:47.155Z,12.93
2024-02-08T09:28:28.669Z,9.57
2024-02-08T09:30:59.401Z,9.27
2024-02-08T09:33:45.586Z,8.25
2024-02-08T09:36:16.069Z,8.10
2024-02-08T09:38:47.116Z,9.30
2024-02-08T09:41:25.699Z,9.25
2024-02-08T09:43:59.308Z,9.25
2024-02-08T09:49:18.570Z,8.02
2024-02-08T09:51:54.697Z,8.43
2024-02-08T09:54:30.432Z,8.45
2024-02-08T09:57:04.013Z,10.00
2024-02-08T09:59:53.338Z,11.38
2024-02-08T10:02:34.178Z,12.93
2024-02-08T10:05:21.131Z,8.82
2024-02-08T10:08:06.920Z,9.10
2024-02-08T10:10:45.499Z,9.75
2024-02-08T10:13:28.835Z,9.13
2024-02-08T10:16:13.898Z,13.73
2024-02-08T10:18:43.300Z,12.20
2024-02-08T10:21:14.917Z,14.80
2024-02-08T10:23:49.914Z,17.80
2024-02-08T10:26:28.742Z,15.02
2024-02-08T10:28:56.724Z,19.55
2024-02-08T10:31:26.868Z,13.48
2024-02-08T10:34:11.190Z,10.77
2024-02-08T10:36:46.340Z,16.13
2024-02-08T10:39:26.693Z,15.57
2024-02-08T10:42:02.973Z,15.73
2024-02-08T10:44:34.930Z,14.10
2024-02-08T10:47:09.249Z,11.68
2024-02-08T10:49:46.534Z,10.55
2024-02-08T10:52:18.028Z,11.55
2024-02-08T10:54:53.968Z,13.77
2024-02-08T10:57:58.506Z,15.07
2024-02-08T11:00:45.069Z,13.55
2024-02-08T11:03:29.596Z,13.07
2024-02-08T11:06:04.802Z,17.77
2024-02-08T11:08:51.445Z,11.75
2024-02-08T11:11:22.478Z,12.95
2024-02-08T11:13:55.114Z,12.13
2024-02-08T11:16:29.268Z,11.27
2024-02-08T11:19:01.904Z,9.02
2024-02-08T11:21:45.265Z,11.98
2024-02-08T11:24:29.375Z,15.70
2024-02-08T11:27:03.742Z,16.38
2024-02-08T11:29:46.778Z,14.32
2024-02-08T11:32:18.446Z,11.55
2024-02-08T11:34:56.056Z,12.23
2024-02-08T11:37:32.238Z,11.60
2024-02-08T11:40:03.247Z,11.85
2024-02-08T11:42:38.540Z,10.07
2024-02-08T11:45:11.240Z,13.05
2024-02-08T11:47:43.357Z,9.93
2024-02-08T11:50:24.635Z,15.23
2024-02-08T11:53:00.547Z,12.32
2024-02-08T11:55:33.672Z,12.40
2024-02-08T11:58:07.230Z,16.95
2024-02-08T12:00:46.792Z,11.02
2024-02-08T12:03:19.096Z,11.38
2024-02-08T12:05:57.126Z,11.10
2024-02-08T12:08:36.760Z,12.38
2024-02-08T12:11:09.406Z,11.15
2024-02-08T12:13:41.393Z,9.90
2024-02-08T12:16:12.661Z,11.82
2024-02-08T12:18:41.668Z,11.93
2024-02-08T12:21:19.004Z,11.90
2024-02-08T12:23:54.461Z,15.98
2024-02-08T12:26:26.497Z,12.02
2024-02-08T12:28:58.294Z,7.88
2024-02-08T12:31:31.088Z,12.95
2024-02-08T12:34:04.897Z,10.23
2024-02-08T12:36:36.652Z,13.38
2024-02-08T12:39:19.106Z,14.75
2024-02-08T12:41:50.556Z,12.10
2024-02-08T12:44:22.099Z,10.90
2024-02-08T12:46:56.166Z,8.75
2024-02-08T12:49:26.341Z,10.27
2024-02-08T12:52:00.754Z,11.38
2024-02-08T12:54:29.752Z,10.88
2024-02-08T12:57:09.283Z,13.23
2024-02-08T12:59:38.573Z,9.98
2024-02-08T13:02:11.339Z,10.95
2024-02-08T13:04:45.665Z,11.80
2024-02-08T13:07:19.204Z,10.88
2024-02-08T13:09:48.836Z,11.30
2024-02-08T13:12:20.436Z,10.60
2024-02-08T13:15:04.094Z,11.88
2024-02-08T13:17:35.371Z,12.55
2024-02-08T13:20:13.815Z,10.68
2024-02-08T13:22:46.979Z,13.52
2024-02-08T13:25:17.568Z,11.52
2024-02-08T13:27:47.301Z,8.85
2024-02-08T13:30:18.783Z,13.38
2024-02-08T13:32:50.765Z,12.60
2024-02-08T13:35:20.634Z,10.40
2024-02-08T13:37:54.249Z,13.90
2024-02-08T13:40:24.166Z,12.38
2024-02-08T13:42:57.348Z,15.75
2024-02-08T13:45:29.421Z,15.73
2024-02-08T13:48:00.100Z,12.27
2024-02-08T13:50:32.778Z,10.80
2024-02-08T13:53:05.800Z,13.23
2024-02-08T13:58:08.533Z,17.90
2024-02-08T14:00:37.634Z,16.10
2024-02-08T14:03:09.511Z,11.30
2024-02-08T14:05:40.940Z,15.77
2024-02-08T14:08:18.715Z,14.50
2024-02-08T14:10:48.755Z,14.73
2024-02-08T14:13:30.605Z,13.10
2024-02-08T14:16:02.235Z,17.98
2024-02-08T14:18:34.317Z,14.23
2024-02-08T14:21:04.585Z,15.27
2024-02-08T14:23:39.294Z,10.68
2024-02-08T14:26:32.738Z,12.57
2024-02-08T14:29:05.794Z,17.40
2024-02-08T14:31:38.915Z,14.02
2024-02-08T14:34:10.938Z,12.23
2024-02-08T14:36:48.769Z,18.85
2024-02-08T14:39:34.232Z,11.75
2024-02-08T14:42:03.131Z,12.57
2024-02-08T14:44:42.362Z,12.07
2024-02-08T14:47:16.861Z,13.23
2024-02-08T14:49:57.981Z,14.57
2024-02-08T14:52:30.322Z,11.10
2024-02-08T14:55:11.760Z,13.02
2024-02-08T14:57:43.404Z,8.15
2024-02-08T15:00:29.977Z,13.00
2024-02-08T15:03:04.310Z,12.05
2024-02-08T15:08:47.277Z,8.50
2024-02-08T15:11:39.916Z,12.27
2024-02-08T15:14:08.482Z,16.23
2024-02-08T15:16:38.529Z,14.57
2024-02-08T15:19:07.827Z,15.18
2024-02-08T15:21:37.661Z,12.93
2024-02-08T15:24:21.400Z,13.25
2024-02-08T15:27:05.817Z,15.57
2024-02-08T15:29:44.007Z,17.65
2024-02-08T15:32:19.030Z,17.45
2024-02-08T15:35:06.352Z,15.50
2024-02-08T15:37:43.138Z,14.07
2024-02-08T15:40:14.308Z,12.60
2024-02-08T15:42:45.032Z,18.75
2024-02-08T15:45:14.756Z,12.05
2024-02-08T15:47:59.216Z,12.35
2024-02-08T15:50:34.187Z,21.90
2024-02-08T15:53:10.407Z,14.18
2024-02-08T15:55:44.065Z,13.57
2024-02-08T15:58:29.393Z,18.75
2024-02-08T16:01:17.306Z,15.23
2024-02-08T16:03:56.742Z,15.43
2024-02-08T16:06:45.976Z,11.68
2024-02-08T16:09:27.436Z,14.32
2024-02-08T16:12:01.609Z,18.05
2024-02-08T16:14:43.437Z,16.77
2024-02-08T16:17:38.634Z,15.68
2024-02-08T16:20:24.650Z,8.93
2024-02-08T16:23:04.057Z,13.13
2024-02-08T16:25:45.978Z,15.82
2024-02-08T16:28:19.323Z,9.60
2024-02-08T16:31:11.810Z,14.57
2024-02-08T16:33:50.328Z,15.38
2024-02-08T16:36:45.717Z,13.82
2024-02-08T16:39:34.712Z,17.58
2024-02-08T16:42:03.147Z,14.60
2024-02-08T16:44:36.432Z,19.83
2024-02-08T16:47:23.940Z,18.33
2024-02-08T16:49:52.053Z,15.32
2024-02-08T16:52:23.324Z,17.40
2024-02-08T16:55:01.389Z,15.18
2024-02-08T16:57:33.252Z,20.10
2024-02-08T17:00:22.589Z,17.65
2024-02-08T17:03:05.491Z,14.38
2024-02-08T17:05:50.725Z,10.70
2024-02-08T17:08:22.129Z,10.43
2024-02-08T17:10:57.247Z,11.38
2024-02-08T17:13:38.414Z,10.52
2024-02-08T17:16:26.437Z,13.18
2024-02-08T17:19:23.327Z,11.30
2024-02-08T17:22:09.550Z,9.52
2024-02-08T17:24:47.788Z,13.20
2024-02-08T17:27:39.187Z,10.73
2024-02-08T17:30:18.198Z,9.10
2024-02-08T17:32:46.661Z,9.57
2024-02-08T17:35:17.689Z,10.90
2024-02-08T17:37:49.900Z,12.15
2024-02-08T17:40:21.491Z,11.18
2024-02-08T17:42:51.318Z,15.13
2024-02-08T17:45:21.543Z,9.15
2024-02-08T17:47:50.681Z,11.43
2024-02-08T17:50:31.049Z,13.25
2024-02-08T17:53:01.048Z,9.40
2024-02-08T17:55:37.494Z,7.57
2024-02-08T17:58:14.125Z,11.68
2024-02-08T18:00:49.629Z,10.43
2024-02-08T18:03:27.127Z,10.05
2024-02-08T18:05:58.247Z,9.35
2024-02-08T18:08:27.302Z,10.32
2024-02-08T18:10:55.771Z,14.05
2024-02-08T18:13:27.631Z,13.70
2024-02-08T18:15:58.702Z,13.38
2024-02-08T18:18:27.452Z,7.97
2024-02-08T18:20:59.518Z,12.60
2024-02-08T18:23:34.132Z,12.15
2024-02-08T18:26:05.242Z,8.98
2024-02-08T18:28:33.877Z,9.20
2024-02-08T18:31:07.268Z,10.77
2024-02-08T18:33:36.555Z,15.77
2024-02-08T18:36:09.301Z,9.90
2024-02-08T18:38:39.525Z,11.88
2024-02-08T18:41:08.380Z,10.75
2024-02-08T18:43:36.672Z,10.18
2024-02-08T18:46:07.385Z,16.73
2024-02-08T18:48:42.383Z,13.18
2024-02-08T18:51:17.191Z,7.82
2024-02-08T18:53:46.285Z,10.13
2024-02-08T18:56:20.503Z,13.68
2024-02-08T18:58:53.412Z,13.20
2024-02-08T19:01:26.539Z,11.68
2024-02-08T19:03:56.004Z,10.45
2024-02-08T19:06:27.705Z,10.10
2024-02-08T19:08:56.807Z,13.25
2024-02-08T19:11:25.031Z,12.88
2024-02-08T19:13:53.663Z,14.82
2024-02-08T19:16:29.155Z,13.20
2024-02-08T19:19:02.320Z,11.25
2024-02-08T19:21:39.130Z,14.80
2024-02-08T19:24:08.728Z,9.68
2024-02-08T19:26:37.152Z,11.77
2024-02-08T19:29:07.579Z,10.57
2024-02-08T19:31:43.360Z,14.60
2024-02-08T19:34:19.170Z,13.23
2024-02-08T19:36:54.297Z,13.85
2024-02-08T19:39:40.568Z,11.13
2024-02-08T19:42:19.702Z,9.65
2024-02-08T19:44:54.503Z,13.98
2024-02-08T19:47:28.446Z,14.68
2024-02-08T19:50:05.042Z,8.90
2024-02-08T19:52:41.671Z,14.60
2024-02-08T19:55:22.849Z,11.80
2024-02-08T19:57:54.402Z,8.30
2024-02-08T20:00:29.912Z,12.07
2024-02-08T20:03:01.440Z,10.95
2024-02-08T20:05:36.600Z,11.10
2024-02-08T20:08:11.329Z,11.93
2024-02-08T20:10:41.908Z,13.05
2024-02-08T20:13:16.192Z,13.07
2024-02-08T20:15:45.387Z,9.30
2024-02-08T20:18:18.869Z,11.35
2024-02-08T20:20:48.988Z,10.98
2024-02-08T20:23:23.353Z,9.25
2024-02-08T20:25:55.742Z,13.50
2024-02-08T20:28:24.828Z,12.85
2024-02-08T20:30:55.612Z,10.45
2024-02-08T20:33:24.562Z,12.85
2024-02-08T20:35:56.982Z,14.77
2024-02-08T20:38:28.193Z,9.90
2024-02-08T20:40:57.412Z,12.73
2024-02-08T20:43:28.080Z,12.27
2024-02-08T20:45:58.669Z,12.25
2024-02-08T20:48:27.025Z,10.55
2024-02-08T20:50:56.817Z,11.48
2024-02-08T20:53:28.456Z,17.25
2024-02-08T20:55:57.820Z,15.98
2024-02-08T20:58:26.235Z,17.52
2024-02-08T21:00:56.529Z,21.15
2024-02-08T21:03:28.094Z,21.05
2024-02-08T21:05:59.520Z,22.98
2024-02-08T21:08:30.456Z,28.00
2024-02-08T21:11:00.110Z,29.50
2024-02-08T21:13:33.405Z,32.63
2024-02-08T21:16:01.842Z,25.25
2024-02-08T21:18:30.727Z,25.58
2024-02-08T21:20:59.992Z,22.70
2024-02-08T21:23:28.258Z,27.40
2024-02-08T21:26:23.144Z,27.02
2024-02-08T21:28:55.663Z,24.00
2024-02-08T21:34:25.833Z,20.77
2024-02-08T21:36:55.051Z,21.02
2024-02-08T21:39:33.147Z,20.00
2024-02-08T21:42:07.528Z,17.77
2024-02-08T21:44:39.681Z,24.83
2024-02-08T21:47:08.119Z,18.52
2024-02-08T21:49:36.378Z,24.08
2024-02-08T21:52:08.806Z,18.10
2024-02-08T21:54:39.314Z,22.92
2024-02-08T21:57:09.295Z,15.80
2024-02-08T21:59:38.036Z,16.88
2024-02-08T22:02:09.428Z,19.15
2024-02-08T22:04:39.078Z,18.45
2024-02-08T22:07:07.900Z,19.52
2024-02-08T22:09:36.864Z,21.67
2024-02-08T22:12:06.207Z,13.63
2024-02-08T22:14:40.612Z,19.85
2024-02-08T22:17:10.796Z,16.65
2024-02-08T22:19:44.680Z,17.10
2024-02-08T22:22:15.160Z,20.25
2024-02-08T22:24:43.692Z,15.85
2024-02-08T22:27:12.206Z,17.30
2024-02-08T22:29:42.338Z,15.48
2024-02-08T22:32:12.730Z,18.45
2024-02-08T22:34:42.791Z,14.75
2024-02-08T22:37:11.781Z,13.82
2024-02-08T22:39:39.931Z,11.38
2024-02-08T22:42:08.308Z,11.27
2024-02-08T22:44:39.334Z,12.18
2024-02-08T22:47:08.980Z,13.85
2024-02-08T22:49:37.915Z,16.83
2024-02-08T22:52:07.230Z,11.80
2024-02-08T22:54:35.474Z,7.38
2024-02-08T22:57:04.910Z,10.82
2024-02-08T22:59:33.056Z,8.77
2024-02-08T23:02:08.200Z,14.70
2024-02-08T23:04:39.134Z,13.18
2024-02-08T23:07:08.961Z,9.40
2024-02-08T23:09:37.359Z,11.00
2024-02-08T23:12:07.096Z,14.52
2024-02-08T23:14:35.232Z,15.32
2024-02-08T23:17:04.595Z,16.90
2024-02-08T23:19:34.065Z,18.13
2024-02-08T23:22:07.198Z,13.98
2024-02-08T23:24:41.988Z,16.38
2024-02-08T23:27:11.097Z,15.05
2024-02-08T23:29:39.250Z,11.65
2024-02-08T23:32:09.975Z,14.38
2024-02-08T23:34:41.882Z,18.00
2024-02-08T23:37:13.026Z,12.30
2024-02-08T23:39:41.414Z,9.88
2024-02-08T23:42:09.746Z,11.43
2024-02-08T23:44:39.672Z,15.45
2024-02-08T23:47:08.224Z,13.30
2024-02-08T23:49:36.341Z,9.98
2024-02-08T23:52:04.790Z,12.98
2024-02-08T23:54:34.327Z,9.80
2024-02-08T23:57:05.819Z,10.52
2024-02-08T23:59:34.817Z,10.23
